createdAt,value
2023-04-09T00:00:16.762Z,4.41
2023-04-09T00:03:04.477Z,4.39
2023-04-09T00:05:31.482Z,4.40
2023-04-09T00:07:59.399Z,4.39
2023-04-09T00:10:26.507Z,4.41
2023-04-09T00:12:54.015Z,4.38
2023-04-09T00:15:30.594Z,4.42
2023-04-09T00:17:59.247Z,4.40
2023-04-09T00:20:26.341Z,4.42
2023-04-09T00:22:54.213Z,4.41
2023-04-09T00:25:21.174Z,4.41
2023-04-09T00:27:48.469Z,4.37
2023-04-09T00:30:16.028Z,4.39
2023-04-09T00:32:46.369Z,4.39
2023-04-09T00:35:13.624Z,4.37
2023-04-09T00:37:41.233Z,4.36
2023-04-09T00:40:08.868Z,4.40
2023-04-09T00:42:37.535Z,4.38
2023-04-09T00:45:05.331Z,4.41
2023-04-09T00:47:35.662Z,4.43
2023-04-09T00:50:03.436Z,4.43
2023-04-09T00:52:31.181Z,4.43
2023-04-09T00:55:01.731Z,4.37
2023-04-09T00:57:29.495Z,4.38
2023-04-09T00:59:56.910Z,4.36
2023-04-09T01:02:24.719Z,4.37
2023-04-09T01:04:51.916Z,4.37
2023-04-09T01:07:38.172Z,4.39
2023-04-09T01:10:23.668Z,4.37
2023-04-09T01:13:12.092Z,4.39
2023-04-09T01:15:43.681Z,4.41
2023-04-09T01:18:13.889Z,4.40
2023-04-09T01:20:49.878Z,4.39
2023-04-09T01:23:29.729Z,4.37
2023-04-09T01:26:15.811Z,4.35
2023-04-09T01:28:53.992Z,4.35
2023-04-09T01:31:25.933Z,4.37
2023-04-09T01:33:53.698Z,4.37
2023-04-09T01:36:21.913Z,4.38
2023-04-09T01:38:51.699Z,4.38
2023-04-09T01:41:21.713Z,4.40
2023-04-09T01:43:51.010Z,4.40
2023-04-09T01:46:18.635Z,4.40
2023-04-09T01:48:47.137Z,4.36
2023-04-09T01:51:14.394Z,4.41
2023-04-09T01:53:43.567Z,4.40
2023-04-09T01:56:11.104Z,4.39
2023-04-09T01:58:38.911Z,4.33
2023-04-09T02:01:12.022Z,4.26
2023-04-09T02:04:00.694Z,4.23
2023-04-09T02:06:31.169Z,4.13
2023-04-09T02:09:00.754Z,4.04
2023-04-09T02:11:29.647Z,3.96
2023-04-09T02:13:58.395Z,3.88
2023-04-09T02:16:26.171Z,3.79
2023-04-09T02:18:55.099Z,3.74
2023-04-09T02:21:23.226Z,3.69
2023-04-09T02:23:51.707Z,3.70
2023-04-09T02:26:18.783Z,3.60
2023-04-09T02:28:46.183Z,3.52
2023-04-09T02:31:13.410Z,3.50
2023-04-09T02:33:41.017Z,3.48
2023-04-09T02:36:11.574Z,3.46
2023-04-09T02:38:42.816Z,3.44
2023-04-09T02:41:12.514Z,3.44
2023-04-09T02:43:40.022Z,3.45
2023-04-09T02:46:10.046Z,3.42
2023-04-09T02:48:37.564Z,3.41
2023-04-09T02:51:08.324Z,3.45
2023-04-09T02:53:37.845Z,3.43
2023-04-09T02:56:05.158Z,3.43
2023-04-09T02:58:32.653Z,3.40
2023-04-09T03:00:59.886Z,3.35
2023-04-09T03:03:27.417Z,3.34
2023-04-09T03:05:54.504Z,3.28
2023-04-09T03:08:22.480Z,3.26
2023-04-09T03:10:49.839Z,3.25
2023-04-09T03:13:17.548Z,3.23
2023-04-09T03:15:44.784Z,3.21
2023-04-09T03:18:12.494Z,3.20
2023-04-09T03:20:39.999Z,3.19
2023-04-09T03:23:10.675Z,3.16
2023-04-09T03:25:43.264Z,3.17
2023-04-09T03:28:17.085Z,3.18
2023-04-09T03:30:48.129Z,3.21
2023-04-09T03:33:16.214Z,3.22
2023-04-09T03:35:53.502Z,3.26
2023-04-09T03:38:33.904Z,3.29
2023-04-09T03:41:06.605Z,3.35
2023-04-09T03:43:38.873Z,3.39
2023-04-09T03:46:18.051Z,3.45
2023-04-09T03:48:48.309Z,3.49
2023-04-09T03:51:19.588Z,3.50
2023-04-09T03:53:54.541Z,3.55
2023-04-09T03:56:22.490Z,3.57
2023-04-09T03:58:50.839Z,3.62
2023-04-09T04:01:21.577Z,3.64
2023-04-09T04:03:55.869Z,3.72
2023-04-09T04:06:25.202Z,3.71
2023-04-09T04:09:04.542Z,3.74
2023-04-09T04:11:40.449Z,3.77
2023-04-09T04:14:10.207Z,3.78
2023-04-09T04:16:41.343Z,3.80
2023-04-09T04:19:09.994Z,3.83
2023-04-09T04:21:42.975Z,3.83
2023-04-09T04:24:12.861Z,3.84
2023-04-09T04:26:42.145Z,3.83
2023-04-09T04:29:12.403Z,3.84
2023-04-09T04:32:02.103Z,3.85
2023-04-09T04:34:35.488Z,3.84
2023-04-09T04:37:09.760Z,3.86
2023-04-09T04:39:38.597Z,3.89
2023-04-09T04:42:12.264Z,3.88
2023-04-09T04:44:40.163Z,3.94
2023-04-09T04:47:17.347Z,3.94
2023-04-09T04:49:45.851Z,3.93
2023-04-09T04:52:13.393Z,3.97
2023-04-09T04:54:44.668Z,3.98
2023-04-09T04:57:19.559Z,4.01
2023-04-09T04:59:47.332Z,4.02
2023-04-09T05:02:15.080Z,4.06
2023-04-09T05:05:08.666Z,4.14
2023-04-09T05:07:41.468Z,4.18
2023-04-09T05:10:09.732Z,4.22
2023-04-09T05:12:43.673Z,4.28
2023-04-09T05:15:13.370Z,4.29
2023-04-09T05:17:43.056Z,4.35
2023-04-09T05:20:11.697Z,4.37
2023-04-09T05:22:52.374Z,4.42
2023-04-09T05:25:26.632Z,4.47
2023-04-09T05:27:53.823Z,4.54
2023-04-09T05:30:21.791Z,4.62
2023-04-09T05:32:49.038Z,4.74
2023-04-09T05:35:17.338Z,4.80
2023-04-09T05:37:45.497Z,4.84
2023-04-09T05:40:16.436Z,4.92
2023-04-09T05:42:43.930Z,5.01
2023-04-09T05:45:21.716Z,5.03
2023-04-09T05:47:52.446Z,5.01
2023-04-09T05:50:22.831Z,5.03
2023-04-09T05:52:52.875Z,5.03
2023-04-09T05:55:22.233Z,5.11
2023-04-09T05:57:54.770Z,5.18
2023-04-09T06:00:22.847Z,5.28
2023-04-09T06:02:50.924Z,5.45
2023-04-09T06:05:18.384Z,5.52
2023-04-09T06:07:46.892Z,5.54
2023-04-09T06:10:14.947Z,5.63
2023-04-09T06:12:42.106Z,5.55
2023-04-09T06:15:10.372Z,5.58
2023-04-09T06:17:37.554Z,5.58
2023-04-09T06:20:05.211Z,5.58
2023-04-09T06:22:32.564Z,5.53
2023-04-09T06:25:02.018Z,5.50
2023-04-09T06:27:31.687Z,5.50
2023-04-09T06:29:59.183Z,5.55
2023-04-09T06:32:33.621Z,5.62
2023-04-09T06:35:05.422Z,5.69
2023-04-09T06:37:32.538Z,5.95
2023-04-09T06:40:01.376Z,6.32
2023-04-09T06:42:28.995Z,6.80
2023-04-09T06:45:11.070Z,7.11
2023-04-09T06:47:38.651Z,7.07
2023-04-09T06:50:09.084Z,6.99
2023-04-09T06:52:37.161Z,6.96
2023-04-09T06:55:05.212Z,7.09
2023-04-09T06:57:32.853Z,7.45
2023-04-09T07:00:00.547Z,7.85
2023-04-09T07:02:28.695Z,8.17
2023-04-09T07:04:59.298Z,8.44
2023-04-09T07:07:26.637Z,7.94
2023-04-09T07:09:54.165Z,7.71
2023-04-09T07:12:28.247Z,7.42
2023-04-09T07:15:00.259Z,7.43
2023-04-09T07:17:27.569Z,7.58
2023-04-09T07:19:55.406Z,7.45
2023-04-09T07:22:22.947Z,7.48
2023-04-09T07:24:54.471Z,7.44
2023-04-09T07:27:21.968Z,7.71
2023-04-09T07:29:49.403Z,7.68
2023-04-09T07:32:17.190Z,7.79
2023-04-09T07:34:44.678Z,7.61
2023-04-09T07:37:12.983Z,7.57
2023-04-09T07:39:40.642Z,7.45
2023-04-09T07:42:07.802Z,7.35
2023-04-09T07:44:36.578Z,7.33
2023-04-09T07:47:09.509Z,7.46
2023-04-09T07:49:37.670Z,7.42
2023-04-09T07:52:05.265Z,7.32
2023-04-09T07:54:33.194Z,7.46
2023-04-09T07:57:01.820Z,7.67
2023-04-09T07:59:29.759Z,7.78
2023-04-09T08:01:56.946Z,7.79
2023-04-09T08:04:24.757Z,8.10
2023-04-09T08:06:52.051Z,8.27
2023-04-09T08:09:20.039Z,8.42
2023-04-09T08:11:47.802Z,8.57
2023-04-09T08:14:16.053Z,8.66
2023-04-09T08:16:43.852Z,8.72
2023-04-09T08:19:11.428Z,8.72
2023-04-09T08:21:39.687Z,8.74
2023-04-09T08:24:11.672Z,8.76
2023-04-09T08:26:39.951Z,8.73
2023-04-09T08:29:07.975Z,8.66
2023-04-09T08:31:35.843Z,8.60
2023-04-09T08:34:03.537Z,8.86
2023-04-09T08:36:35.014Z,8.67
2023-04-09T08:39:02.744Z,8.42
2023-04-09T08:41:29.889Z,8.33
2023-04-09T08:43:59.511Z,8.42
2023-04-09T08:46:27.580Z,8.25
2023-04-09T08:48:55.850Z,8.14
2023-04-09T08:51:24.028Z,7.95
2023-04-09T08:53:54.357Z,7.97
2023-04-09T08:56:24.193Z,8.07
2023-04-09T08:58:51.857Z,8.05
2023-04-09T09:01:19.281Z,8.19
2023-04-09T09:04:16.308Z,8.27
2023-04-09T09:06:45.980Z,8.16
2023-04-09T09:09:18.996Z,8.32
2023-04-09T09:11:51.116Z,8.35
2023-04-09T09:14:20.954Z,8.40
2023-04-09T09:16:59.801Z,8.51
2023-04-09T09:19:27.604Z,8.53
2023-04-09T09:22:01.814Z,8.53
2023-04-09T09:24:29.736Z,8.48
2023-04-09T09:26:59.740Z,8.61
2023-04-09T09:29:28.338Z,8.63
2023-04-09T09:31:56.383Z,8.68
2023-04-09T09:34:24.514Z,8.67
2023-04-09T09:36:51.535Z,8.99
2023-04-09T09:39:19.007Z,8.92
2023-04-09T09:41:47.374Z,9.33
2023-04-09T09:44:31.021Z,9.30
2023-04-09T09:46:58.857Z,9.25
2023-04-09T09:49:26.203Z,9.58
2023-04-09T09:51:56.687Z,9.78
2023-04-09T09:54:25.732Z,9.90
2023-04-09T09:56:56.075Z,9.89
2023-04-09T09:59:23.982Z,10.05
2023-04-09T10:01:59.958Z,10.22
2023-04-09T10:04:29.410Z,10.45
2023-04-09T10:07:01.250Z,10.50
2023-04-09T10:09:28.615Z,10.58
2023-04-09T10:11:58.173Z,10.65
2023-04-09T10:14:27.521Z,11.00
2023-04-09T10:16:57.605Z,11.23
2023-04-09T10:19:27.240Z,11.54
2023-04-09T10:21:57.847Z,11.60
2023-04-09T10:24:25.478Z,11.77
2023-04-09T10:26:54.675Z,11.85
2023-04-09T10:29:27.828Z,11.70
2023-04-09T10:31:55.982Z,11.60
2023-04-09T10:34:24.692Z,11.28
2023-04-09T10:36:53.589Z,11.18
2023-04-09T10:39:21.169Z,10.96
2023-04-09T10:41:50.111Z,10.88
2023-04-09T10:44:24.845Z,11.03
2023-04-09T10:46:55.827Z,11.17
2023-04-09T10:49:27.113Z,11.10
2023-04-09T10:52:04.887Z,11.11
2023-04-09T10:54:35.233Z,10.95
2023-04-09T10:57:24.797Z,10.85
2023-04-09T10:59:53.699Z,11.01
2023-04-09T11:02:26.890Z,11.04
2023-04-09T11:04:57.636Z,11.09
2023-04-09T11:07:25.268Z,11.62
2023-04-09T11:09:53.450Z,11.89
2023-04-09T11:12:20.801Z,11.70
2023-04-09T11:14:48.167Z,11.51
2023-04-09T11:17:15.049Z,11.48
2023-04-09T11:19:42.381Z,11.48
2023-04-09T11:22:12.756Z,11.52
2023-04-09T11:24:40.799Z,11.45
2023-04-09T11:27:07.816Z,11.34
2023-04-09T11:29:35.532Z,11.16
2023-04-09T11:32:05.396Z,10.96
2023-04-09T11:34:32.775Z,10.70
2023-04-09T11:37:02.248Z,10.71
2023-04-09T11:39:29.580Z,10.96
2023-04-09T11:41:57.929Z,11.09
2023-04-09T11:44:25.361Z,11.23
2023-04-09T11:46:52.452Z,11.53
2023-04-09T11:49:19.994Z,11.86
2023-04-09T11:51:47.271Z,11.74
2023-04-09T11:54:14.819Z,11.93
2023-04-09T11:56:41.767Z,12.17
2023-04-09T11:59:09.035Z,12.43
2023-04-09T12:01:36.277Z,12.07
2023-04-09T12:04:03.957Z,11.53
2023-04-09T12:06:31.950Z,11.32
2023-04-09T12:08:59.571Z,11.44
2023-04-09T12:11:30.243Z,11.33
2023-04-09T12:14:04.707Z,11.19
2023-04-09T12:16:35.548Z,10.92
2023-04-09T12:19:11.444Z,10.77
2023-04-09T12:21:54.760Z,10.52
2023-04-09T12:24:29.031Z,10.58
2023-04-09T12:26:57.268Z,10.51
2023-04-09T12:29:26.269Z,10.44
2023-04-09T12:31:54.068Z,10.32
2023-04-09T12:34:21.447Z,10.33
2023-04-09T12:36:48.623Z,10.31
2023-04-09T12:39:16.111Z,10.27
2023-04-09T12:41:43.385Z,10.27
2023-04-09T12:44:10.652Z,10.37
2023-04-09T12:46:38.061Z,10.44
2023-04-09T12:49:06.332Z,10.48
2023-04-09T12:51:33.411Z,10.46
2023-04-09T12:54:00.634Z,10.39
2023-04-09T12:56:29.733Z,10.39
2023-04-09T12:58:57.087Z,10.40
2023-04-09T13:01:23.970Z,10.45
2023-04-09T13:03:51.436Z,10.56
2023-04-09T13:06:18.773Z,10.54
2023-04-09T13:08:46.183Z,10.58
2023-04-09T13:11:13.168Z,10.56
2023-04-09T13:13:42.579Z,10.59
2023-04-09T13:16:09.640Z,10.72
2023-04-09T13:18:37.509Z,10.58
2023-04-09T13:21:04.566Z,10.71
2023-04-09T13:23:31.852Z,10.73
2023-04-09T13:26:01.404Z,10.79
2023-04-09T13:28:28.628Z,10.74
2023-04-09T13:30:55.609Z,10.77
2023-04-09T13:33:23.110Z,10.74
2023-04-09T13:35:51.243Z,10.80
2023-04-09T13:38:20.033Z,10.83
2023-04-09T13:40:47.116Z,11.07
2023-04-09T13:43:14.444Z,11.15
2023-04-09T13:45:41.524Z,11.01
2023-04-09T13:48:08.812Z,11.21
2023-04-09T13:50:35.723Z,11.28
2023-04-09T13:53:05.343Z,11.47
2023-04-09T13:55:34.925Z,11.38
2023-04-09T13:58:04.837Z,11.25
2023-04-09T14:00:36.173Z,11.38
2023-04-09T14:03:03.805Z,11.48
2023-04-09T14:05:32.377Z,11.47
2023-04-09T14:07:59.731Z,11.14
2023-04-09T14:10:27.689Z,11.08
2023-04-09T14:12:54.873Z,11.10
2023-04-09T14:15:22.231Z,11.07
2023-04-09T14:17:49.504Z,11.03
2023-04-09T14:20:16.650Z,10.82
2023-04-09T14:22:49.121Z,10.85
2023-04-09T14:25:16.524Z,10.78
2023-04-09T14:27:46.448Z,10.82
2023-04-09T14:30:15.899Z,10.70
2023-04-09T14:32:45.962Z,10.73
2023-04-09T14:35:12.918Z,10.59
2023-04-09T14:37:41.091Z,10.57
2023-04-09T14:40:08.473Z,10.66
2023-04-09T14:42:35.772Z,10.55
2023-04-09T14:45:05.183Z,10.63
2023-04-09T14:47:32.626Z,10.63
2023-04-09T14:50:01.884Z,10.57
2023-04-09T14:52:30.628Z,10.55
2023-04-09T14:54:57.625Z,10.56
2023-04-09T14:57:24.991Z,10.56
2023-04-09T14:59:54.263Z,10.44
2023-04-09T15:02:21.822Z,10.44
2023-04-09T15:04:48.938Z,10.25
2023-04-09T15:07:18.591Z,10.23
2023-04-09T15:09:45.690Z,10.19
2023-04-09T15:12:12.936Z,10.20
2023-04-09T15:14:42.285Z,10.13
2023-04-09T15:17:09.629Z,10.12
2023-04-09T15:19:36.664Z,10.13
2023-04-09T15:22:04.029Z,10.13
2023-04-09T15:24:31.395Z,10.14
2023-04-09T15:26:58.817Z,10.09
2023-04-09T15:29:25.991Z,10.10
2023-04-09T15:31:53.388Z,10.05
2023-04-09T15:34:20.622Z,10.06
2023-04-09T15:36:47.978Z,10.04
2023-04-09T15:39:15.143Z,9.98
2023-04-09T15:41:42.405Z,9.93
2023-04-09T15:44:09.452Z,9.95
2023-04-09T15:46:37.957Z,9.88
2023-04-09T15:49:05.025Z,9.89
2023-04-09T15:51:32.294Z,9.79
2023-04-09T15:53:59.403Z,9.70
2023-04-09T15:56:26.772Z,9.67
2023-04-09T15:58:53.925Z,9.51
2023-04-09T16:01:21.386Z,9.47
2023-04-09T16:03:52.184Z,9.38
2023-04-09T16:06:19.749Z,9.21
2023-04-09T16:08:46.736Z,9.15
2023-04-09T16:11:13.997Z,9.09
2023-04-09T16:13:41.293Z,9.07
2023-04-09T16:16:08.856Z,8.99
2023-04-09T16:18:38.324Z,8.94
2023-04-09T16:21:05.761Z,8.89
2023-04-09T16:23:33.154Z,8.80
2023-04-09T16:26:00.779Z,8.76
2023-04-09T16:28:27.779Z,8.68
2023-04-09T16:30:54.989Z,8.69
2023-04-09T16:33:21.938Z,8.59
2023-04-09T16:35:49.269Z,8.51
2023-04-09T16:38:16.306Z,8.44
2023-04-09T16:40:43.929Z,8.37
2023-04-09T16:43:11.527Z,8.33
2023-04-09T16:45:41.293Z,8.26
2023-04-09T16:48:12.483Z,8.20
2023-04-09T16:50:40.499Z,8.17
2023-04-09T16:53:07.923Z,8.14
2023-04-09T16:55:35.280Z,8.12
2023-04-09T16:58:02.811Z,8.07
2023-04-09T17:00:30.526Z,8.06
2023-04-09T17:02:58.141Z,8.05
2023-04-09T17:05:26.893Z,7.99
2023-04-09T17:07:53.932Z,7.97
2023-04-09T17:10:22.630Z,7.92
2023-04-09T17:12:50.903Z,7.92
2023-04-09T17:15:18.495Z,7.86
2023-04-09T17:17:47.926Z,7.79
2023-04-09T17:20:15.608Z,7.81
2023-04-09T17:22:43.797Z,7.73
2023-04-09T17:25:11.652Z,7.75
2023-04-09T17:27:39.464Z,7.71
2023-04-09T17:30:09.567Z,7.68
2023-04-09T17:32:39.482Z,7.64
2023-04-09T17:35:07.797Z,7.63
2023-04-09T17:37:35.215Z,7.64
2023-04-09T17:40:03.741Z,7.57
2023-04-09T17:42:31.546Z,7.53
2023-04-09T17:45:02.010Z,7.50
2023-04-09T17:47:29.079Z,7.50
2023-04-09T17:49:56.873Z,7.41
2023-04-09T17:52:25.067Z,7.41
2023-04-09T17:54:55.670Z,7.43
2023-04-09T17:57:23.764Z,7.45
2023-04-09T17:59:55.633Z,7.45
2023-04-09T18:02:23.676Z,7.46
2023-04-09T18:04:51.765Z,7.42
2023-04-09T18:07:19.199Z,7.39
2023-04-09T18:09:53.729Z,7.38
2023-04-09T18:12:22.064Z,7.36
2023-04-09T18:14:50.685Z,7.30
2023-04-09T18:17:19.376Z,7.29
2023-04-09T18:19:47.347Z,7.24
2023-04-09T18:22:14.478Z,7.21
2023-04-09T18:24:42.356Z,7.16
2023-04-09T18:27:10.587Z,7.13
2023-04-09T18:29:38.459Z,7.14
2023-04-09T18:32:06.782Z,7.11
2023-04-09T18:34:37.723Z,6.98
2023-04-09T18:37:09.215Z,6.97
2023-04-09T18:39:37.653Z,6.98
2023-04-09T18:42:10.433Z,6.87
2023-04-09T18:44:45.995Z,6.82
2023-04-09T18:47:16.787Z,6.80
2023-04-09T18:49:44.675Z,6.70
2023-04-09T18:52:12.326Z,6.59
2023-04-09T18:54:42.245Z,6.56
2023-04-09T18:57:09.758Z,6.50
2023-04-09T18:59:40.444Z,6.47
2023-04-09T19:02:09.215Z,6.42
2023-04-09T19:04:42.201Z,6.39
2023-04-09T19:07:12.751Z,6.42
2023-04-09T19:09:45.834Z,6.41
2023-04-09T19:12:15.790Z,6.44
2023-04-09T19:14:44.304Z,6.47
2023-04-09T19:17:12.663Z,6.49
2023-04-09T19:19:42.010Z,6.50
2023-04-09T19:22:09.665Z,6.50
2023-04-09T19:24:38.300Z,6.51
2023-04-09T19:27:10.132Z,6.55
2023-04-09T19:29:38.313Z,6.52
2023-04-09T19:32:09.008Z,6.51
2023-04-09T19:34:37.511Z,6.52
2023-04-09T19:37:06.027Z,6.54
2023-04-09T19:39:33.378Z,6.50
2023-04-09T19:42:01.106Z,6.48
2023-04-09T19:44:30.229Z,6.39
2023-04-09T19:46:57.678Z,6.35
2023-04-09T19:49:27.371Z,6.30
2023-04-09T19:51:55.463Z,6.26
2023-04-09T19:54:23.197Z,6.23
2023-04-09T19:56:52.912Z,6.20
2023-04-09T19:59:20.443Z,6.19
2023-04-09T20:01:50.962Z,6.19
2023-04-09T20:04:25.142Z,6.19
2023-04-09T20:06:55.688Z,6.17
2023-04-09T20:09:31.530Z,6.14
2023-04-09T20:12:04.501Z,6.11
2023-04-09T20:14:32.251Z,6.09
2023-04-09T20:17:00.496Z,6.04
2023-04-09T20:19:28.112Z,5.99
2023-04-09T20:21:56.208Z,5.98
2023-04-09T20:24:26.757Z,6.01
2023-04-09T20:26:57.252Z,5.98
2023-04-09T20:29:26.355Z,5.93
2023-04-09T20:31:55.000Z,5.85
2023-04-09T20:34:26.844Z,5.81
2023-04-09T20:36:56.731Z,5.74
2023-04-09T20:39:30.593Z,5.67
2023-04-09T20:41:58.769Z,5.62
2023-04-09T20:44:27.614Z,5.62
2023-04-09T20:46:59.877Z,5.59
2023-04-09T20:49:28.568Z,5.57
2023-04-09T20:51:59.479Z,5.59
2023-04-09T20:54:32.092Z,5.59
2023-04-09T20:57:02.839Z,5.61
2023-04-09T20:59:30.606Z,5.62
2023-04-09T21:01:59.129Z,5.63
2023-04-09T21:04:29.302Z,5.65
2023-04-09T21:06:59.186Z,5.70
2023-04-09T21:09:29.933Z,5.73
2023-04-09T21:11:59.513Z,5.79
2023-04-09T21:14:26.794Z,5.73
2023-04-09T21:16:56.386Z,5.78
2023-04-09T21:19:25.894Z,5.81
2023-04-09T21:21:56.306Z,5.80
2023-04-09T21:24:26.988Z,5.80
2023-04-09T21:26:55.116Z,5.77
2023-04-09T21:29:23.797Z,5.78
2023-04-09T21:31:55.212Z,5.73
2023-04-09T21:34:23.306Z,5.75
2023-04-09T21:36:51.515Z,5.74
2023-04-09T21:39:19.598Z,5.74
2023-04-09T21:41:47.876Z,5.75
2023-04-09T21:44:16.313Z,5.73
2023-04-09T21:46:45.286Z,5.74
2023-04-09T21:49:15.891Z,5.74
2023-04-09T21:51:48.026Z,5.76
2023-04-09T21:54:16.576Z,5.73
2023-04-09T21:56:44.129Z,5.73
2023-04-09T21:59:13.926Z,5.75
2023-04-09T22:01:42.360Z,5.74
2023-04-09T22:04:10.522Z,5.76
2023-04-09T22:06:38.074Z,5.78
2023-04-09T22:09:05.968Z,5.80
2023-04-09T22:11:34.568Z,5.80
2023-04-09T22:14:03.520Z,5.80
2023-04-09T22:16:33.588Z,5.79
2023-04-09T22:19:03.120Z,5.80
2023-04-09T22:21:32.043Z,5.81
2023-04-09T22:24:01.819Z,5.81
2023-04-09T22:26:29.444Z,5.80
2023-04-09T22:28:58.321Z,5.82
2023-04-09T22:31:30.466Z,5.82
2023-04-09T22:34:09.954Z,5.84
2023-04-09T22:36:42.181Z,5.80
2023-04-09T22:39:09.630Z,5.82
2023-04-09T22:41:39.482Z,5.82
2023-04-09T22:44:19.162Z,5.79
2023-04-09T22:46:49.367Z,5.78
2023-04-09T22:49:20.934Z,5.75
2023-04-09T22:51:49.593Z,5.72
2023-04-09T22:54:17.089Z,5.71
2023-04-09T22:56:45.849Z,5.70
2023-04-09T22:59:13.227Z,5.68
2023-04-09T23:01:49.639Z,5.68
2023-04-09T23:04:24.166Z,5.67
2023-04-09T23:06:52.329Z,5.66
2023-04-09T23:09:19.853Z,5.65
2023-04-09T23:11:49.945Z,5.67
2023-04-09T23:14:20.960Z,5.66
2023-04-09T23:16:50.220Z,5.66
2023-04-09T23:19:18.693Z,5.67
2023-04-09T23:21:46.451Z,5.65
2023-04-09T23:24:16.199Z,5.61
2023-04-09T23:26:43.946Z,5.65
2023-04-09T23:29:12.322Z,5.62
2023-04-09T23:31:42.607Z,5.61
2023-04-09T23:34:11.797Z,5.59
2023-04-09T23:36:41.481Z,5.61
2023-04-09T23:39:10.476Z,5.60
2023-04-09T23:41:44.084Z,5.64
2023-04-09T23:44:16.484Z,5.66
2023-04-09T23:46:44.460Z,5.68
2023-04-09T23:49:25.434Z,5.73
2023-04-09T23:51:53.475Z,5.74
2023-04-09T23:54:21.576Z,5.78
2023-04-09T23:56:50.169Z,5.77
2023-04-09T23:59:35.441Z,5.72
